createdAt,value
2018-12-10T00:01:09.216Z,94094.73
2018-12-10T00:03:37.203Z,94103.14
2018-12-10T00:06:04.773Z,94100.19
2018-12-10T00:08:32.594Z,94094.97
2018-12-10T00:11:00.405Z,94094.68
2018-12-10T00:13:28.409Z,94093.64
2018-12-10T00:15:55.949Z,94094.41
2018-12-10T00:18:23.503Z,94087.59
2018-12-10T00:20:51.027Z,94087.63
2018-12-10T00:23:18.551Z,94081.45
2018-12-10T00:25:46.379Z,94074.19
2018-12-10T00:28:13.925Z,94072.56
2018-12-10T00:30:41.453Z,94070.95
2018-12-10T00:33:09.044Z,94074.95
2018-12-10T00:35:37.460Z,94086.98
2018-12-10T00:38:04.988Z,94082.91
2018-12-10T00:40:32.773Z,94086.40
2018-12-10T00:43:00.312Z,94086.22
2018-12-10T00:45:27.835Z,94097.38
2018-12-10T00:47:55.655Z,94095.53
2018-12-10T00:50:23.200Z,94082.11
2018-12-10T00:52:50.841Z,94080.68
2018-12-10T00:55:18.407Z,94080.17
2018-12-10T00:57:46.572Z,94077.76
2018-12-10T01:00:14.129Z,94070.08
2018-12-10T01:02:41.939Z,94064.67
2018-12-10T01:05:09.485Z,94058.55
2018-12-10T01:07:37.012Z,94062.98
2018-12-10T01:10:05.243Z,94063.10
2018-12-10T01:12:32.777Z,94054.23
2018-12-10T01:15:00.317Z,94055.28
2018-12-10T01:17:27.878Z,94052.23
2018-12-10T01:19:55.421Z,94048.36
2018-12-10T01:22:22.974Z,94044.20
2018-12-10T01:24:50.809Z,94035.88
2018-12-10T01:27:18.379Z,94035.20
2018-12-10T01:29:45.919Z,94034.92
2018-12-10T01:32:13.792Z,94025.67
2018-12-10T01:34:41.321Z,94030.55
2018-12-10T01:37:08.854Z,94031.22
2018-12-10T01:39:36.683Z,94029.59
2018-12-10T01:42:04.222Z,94024.27
2018-12-10T01:44:31.759Z,94027.38
2018-12-10T01:46:59.321Z,94024.25
2018-12-10T01:49:26.864Z,94028.97
2018-12-10T01:51:54.383Z,94031.43
2018-12-10T01:54:22.264Z,94028.80
2018-12-10T01:56:49.789Z,94030.25
2018-12-10T01:59:17.316Z,94026.72
2018-12-10T02:01:44.869Z,94023.67
2018-12-10T02:04:12.440Z,94024.95
2018-12-10T02:06:40.101Z,94012.51
2018-12-10T02:09:08.038Z,94010.05
2018-12-10T02:11:35.564Z,94008.88
2018-12-10T02:14:03.332Z,94001.97
2018-12-10T02:16:30.881Z,94003.47
2018-12-10T02:18:58.407Z,93999.80
2018-12-10T02:21:26.017Z,93999.95
2018-12-10T02:23:53.896Z,93986.41
2018-12-10T02:26:21.418Z,93985.70
2018-12-10T02:28:54.762Z,93978.08
2018-12-10T02:31:22.317Z,93967.70
2018-12-10T02:33:49.831Z,93962.94
2018-12-10T02:36:17.857Z,93958.77
2018-12-10T02:38:45.412Z,93962.45
2018-12-10T02:41:12.945Z,93954.98
2018-12-10T02:43:40.737Z,93954.98
2018-12-10T02:46:08.317Z,93955.81
2018-12-10T02:48:35.836Z,93955.38
2018-12-10T02:51:03.619Z,93959.77
2018-12-10T02:53:31.136Z,93951.31
2018-12-10T02:55:58.665Z,93936.00
2018-12-10T02:58:26.295Z,93937.03
2018-12-10T03:00:53.809Z,93933.70
2018-12-10T03:03:21.329Z,93933.23
2018-12-10T03:05:49.010Z,93937.02
2018-12-10T03:08:16.580Z,93938.55
2018-12-10T03:10:44.115Z,93936.06
2018-12-10T03:13:11.995Z,93941.39
2018-12-10T03:15:39.540Z,93940.98
2018-12-10T03:18:07.082Z,93939.75
2018-12-10T03:20:35.054Z,93939.81
2018-12-10T03:23:02.591Z,93936.31
2018-12-10T03:25:30.130Z,93944.73
2018-12-10T03:27:57.706Z,93945.38
2018-12-10T03:30:25.250Z,93952.35
2018-12-10T03:32:52.765Z,93954.20
2018-12-10T03:35:20.341Z,93957.95
2018-12-10T03:37:47.877Z,93937.41
2018-12-10T03:40:15.418Z,93964.08
2018-12-10T03:42:43.002Z,93977.71
2018-12-10T03:45:10.530Z,93984.25
2018-12-10T03:47:38.083Z,93989.63
2018-12-10T03:50:06.941Z,93985.97
2018-12-10T03:52:34.464Z,93993.09
2018-12-10T03:55:01.983Z,93999.00
2018-12-10T03:57:29.893Z,93994.81
2018-12-10T03:59:57.414Z,93996.09
2018-12-10T04:02:24.947Z,93991.11
2018-12-10T04:04:52.686Z,94001.02
2018-12-10T04:07:20.213Z,93995.89
2018-12-10T04:09:47.755Z,93992.58
2018-12-10T04:12:15.608Z,93996.02
2018-12-10T04:14:43.131Z,93996.97
2018-12-10T04:17:10.679Z,93997.42
2018-12-10T04:19:38.252Z,93998.50
2018-12-10T04:22:05.793Z,93998.72
2018-12-10T04:24:33.335Z,93993.30
2018-12-10T04:27:00.920Z,93996.13
2018-12-10T04:29:28.461Z,94002.78
2018-12-10T04:31:55.995Z,93998.96
2018-12-10T04:34:23.840Z,93999.51
2018-12-10T04:36:51.613Z,93997.02
2018-12-10T04:39:19.160Z,93999.83
2018-12-10T04:41:47.046Z,93998.03
2018-12-10T04:44:14.635Z,93994.14
2018-12-10T04:46:42.177Z,93991.79
2018-12-10T04:49:09.967Z,93993.00
2018-12-10T04:51:37.512Z,93993.91
2018-12-10T04:54:05.041Z,93988.52
2018-12-10T04:56:32.903Z,93989.25
2018-12-10T04:59:01.014Z,93989.95
2018-12-10T05:01:28.621Z,93991.44
2018-12-10T05:03:56.184Z,93985.89
2018-12-10T05:06:23.735Z,93982.04
2018-12-10T05:08:51.257Z,93985.02
2018-12-10T05:11:19.080Z,93987.41
2018-12-10T05:13:46.642Z,93982.98
2018-12-10T05:16:14.201Z,93972.29
2018-12-10T05:18:42.197Z,93969.30
2018-12-10T05:21:09.752Z,93964.28
2018-12-10T05:23:37.290Z,93961.36
2018-12-10T05:26:04.842Z,93963.53
2018-12-10T05:28:32.415Z,93959.14
2018-12-10T05:30:59.944Z,93962.44
2018-12-10T05:33:27.513Z,93965.25
2018-12-10T05:35:55.047Z,93966.33
2018-12-10T05:38:22.578Z,93969.07
2018-12-10T05:40:50.436Z,93969.77
2018-12-10T05:43:17.955Z,93976.28
2018-12-10T05:45:45.545Z,93987.59
2018-12-10T05:48:13.653Z,93986.69
2018-12-10T05:50:41.177Z,93996.02
2018-12-10T05:53:08.742Z,94001.42
2018-12-10T05:55:36.548Z,93998.27
2018-12-10T05:58:04.063Z,94011.52
2018-12-10T06:00:31.592Z,94007.28
2018-12-10T06:02:59.411Z,94016.58
2018-12-10T06:05:26.955Z,94014.15
2018-12-10T06:07:54.554Z,94014.19
2018-12-10T06:10:22.220Z,94015.20
2018-12-10T06:12:49.742Z,94025.42
2018-12-10T06:15:17.296Z,94025.02
2018-12-10T06:17:45.147Z,94014.42
2018-12-10T06:20:13.158Z,94037.28
2018-12-10T06:22:40.676Z,94042.35
2018-12-10T06:25:08.193Z,94037.53
2018-12-10T06:27:36.122Z,94037.05
2018-12-10T06:30:04.232Z,94046.61
2018-12-10T06:32:31.762Z,94045.89
2018-12-10T06:34:59.628Z,94051.81
2018-12-10T06:37:27.507Z,94055.40
2018-12-10T06:39:55.059Z,94052.20
2018-12-10T06:42:22.597Z,94059.24
2018-12-10T06:44:50.413Z,94065.05
2018-12-10T06:47:17.944Z,94067.75
2018-12-10T06:49:45.461Z,94073.89
2018-12-10T06:52:13.308Z,94078.09
2018-12-10T06:54:40.984Z,94079.89
2018-12-10T06:57:08.505Z,94083.02
2018-12-10T06:59:36.461Z,94090.45
2018-12-10T07:02:04.372Z,94092.88
2018-12-10T07:04:31.954Z,94100.75
2018-12-10T07:06:59.525Z,94103.95
2018-12-10T07:09:27.425Z,94109.45
2018-12-10T07:11:54.952Z,94115.81
2018-12-10T07:14:22.552Z,94117.97
2018-12-10T07:16:50.418Z,94117.86
2018-12-10T07:19:17.947Z,94124.53
2018-12-10T07:21:45.489Z,94124.60
2018-12-10T07:24:13.843Z,94138.97
2018-12-10T07:26:41.381Z,94115.29
2018-12-10T07:29:09.272Z,94145.67
2018-12-10T07:31:36.908Z,94148.45
2018-12-10T07:34:04.802Z,94150.29
2018-12-10T07:36:32.876Z,94154.58
2018-12-10T07:39:00.922Z,94162.80
2018-12-10T07:41:28.585Z,94156.35
2018-12-10T07:43:56.757Z,94161.25
2018-12-10T07:46:24.283Z,94162.23
2018-12-10T07:48:51.871Z,94167.16
2018-12-10T07:51:19.433Z,94170.67
2018-12-10T07:53:46.972Z,94172.38
2018-12-10T07:56:14.664Z,94179.31
2018-12-10T07:58:42.206Z,94176.66
2018-12-10T08:01:10.016Z,94175.06
2018-12-10T08:03:37.544Z,94185.00
2018-12-10T08:06:05.075Z,94188.00
2018-12-10T08:08:32.895Z,94192.84
2018-12-10T08:11:00.440Z,94195.95
2018-12-10T08:13:27.962Z,94196.79
2018-12-10T08:15:55.866Z,94198.19
2018-12-10T08:18:23.855Z,94198.61
2018-12-10T08:20:51.694Z,94207.00
2018-12-10T08:23:19.229Z,94200.97
2018-12-10T08:25:46.748Z,94204.12
2018-12-10T08:28:14.640Z,94213.60
2018-12-10T08:30:42.160Z,94215.09
2018-12-10T08:33:09.867Z,94208.30
2018-12-10T08:35:40.939Z,94213.20
2018-12-10T08:38:06.982Z,94208.11
2018-12-10T08:40:34.535Z,94217.88
2018-12-10T08:43:02.062Z,94219.41
2018-12-10T08:45:29.635Z,94215.77
2018-12-10T08:47:57.521Z,94209.93
2018-12-10T08:50:25.069Z,94215.84
2018-12-10T08:52:53.344Z,94222.31
2018-12-10T08:55:21.012Z,94224.83
2018-12-10T08:57:48.550Z,94216.11
2018-12-10T09:00:16.333Z,94217.09
2018-12-10T09:02:43.870Z,94213.69
2018-12-10T09:05:11.448Z,94209.60
2018-12-10T09:07:39.250Z,94209.75
2018-12-10T09:10:07.228Z,94211.41
2018-12-10T09:12:34.863Z,94208.59
2018-12-10T09:15:02.743Z,94203.86
2018-12-10T09:17:30.309Z,94203.38
2018-12-10T09:19:57.875Z,94204.98
2018-12-10T09:22:25.790Z,94210.52
2018-12-10T09:24:53.317Z,94212.41
2018-12-10T09:27:20.932Z,94209.98
2018-12-10T09:29:48.947Z,94206.79
2018-12-10T09:32:16.502Z,94202.43
2018-12-10T09:34:44.038Z,94201.72
2018-12-10T09:37:11.900Z,94207.45
2018-12-10T09:39:39.452Z,94204.98
2018-12-10T09:42:07.013Z,94206.88
2018-12-10T09:44:34.798Z,94203.20
2018-12-10T09:47:02.451Z,94197.72
2018-12-10T09:49:29.958Z,94202.33
2018-12-10T09:51:58.075Z,94204.16
2018-12-10T09:54:25.595Z,94202.50
2018-12-10T09:56:53.215Z,94204.86
2018-12-10T09:59:20.745Z,94195.19
2018-12-10T10:01:48.302Z,94190.77
2018-12-10T10:04:16.092Z,94194.66
2018-12-10T10:06:43.973Z,94199.50
2018-12-10T10:09:11.719Z,94198.33
2018-12-10T10:11:39.610Z,94196.55
2018-12-10T10:14:07.470Z,94195.84
2018-12-10T10:16:35.629Z,94191.48
2018-12-10T10:19:03.141Z,94193.23
2018-12-10T10:21:30.714Z,94193.23
2018-12-10T10:23:59.531Z,94186.17
2018-12-10T10:26:27.300Z,94186.03
2018-12-10T10:28:54.864Z,94186.28
2018-12-10T10:31:22.563Z,94178.20
2018-12-10T10:33:50.087Z,94182.70
2018-12-10T10:36:17.604Z,94178.62
2018-12-10T10:38:45.723Z,94171.34
2018-12-10T10:41:13.422Z,94173.05
2018-12-10T10:43:41.051Z,94168.20
2018-12-10T10:46:08.933Z,94171.70
2018-12-10T10:48:36.442Z,94167.45
2018-12-10T10:51:04.087Z,94167.67
2018-12-10T10:53:32.101Z,94167.11
2018-12-10T10:55:59.898Z,94167.41
2018-12-10T10:58:27.772Z,94161.67
2018-12-10T11:01:00.921Z,94166.73
2018-12-10T11:03:34.004Z,94166.83
2018-12-10T11:06:01.891Z,94159.65
2018-12-10T11:08:29.455Z,94164.31
2018-12-10T11:10:56.972Z,94171.82
2018-12-10T11:13:24.808Z,94164.10
2018-12-10T11:15:52.368Z,94167.58
2018-12-10T11:18:19.912Z,94171.41
2018-12-10T11:20:48.022Z,94164.02
2018-12-10T11:23:15.573Z,94169.11
2018-12-10T11:25:43.488Z,94161.25
2018-12-10T11:28:11.018Z,94161.42
2018-12-10T11:30:38.628Z,94163.64
2018-12-10T11:33:06.652Z,94165.59
2018-12-10T11:35:34.193Z,94172.30
2018-12-10T11:38:01.725Z,94174.91
2018-12-10T11:40:29.690Z,94175.38
2018-12-10T11:42:57.257Z,94173.13
2018-12-10T11:45:24.832Z,94171.83
2018-12-10T11:47:52.757Z,94176.77
2018-12-10T11:50:20.690Z,94178.00
2018-12-10T11:52:48.670Z,94171.97
2018-12-10T11:55:16.287Z,94174.84
2018-12-10T11:57:44.257Z,94174.38
2018-12-10T12:00:11.776Z,94169.52
2018-12-10T12:02:39.300Z,94177.99
2018-12-10T12:05:07.157Z,94175.88
2018-12-10T12:07:34.676Z,94172.73
2018-12-10T12:10:02.317Z,94173.48
2018-12-10T13:44:28.572Z,94186.70
2018-12-10T13:46:56.684Z,94175.77
2018-12-10T13:49:24.208Z,94197.80
2018-12-10T13:51:51.758Z,94194.45
2018-12-10T13:54:19.832Z,94192.08
2018-12-10T13:56:47.906Z,94191.21
2018-12-10T13:59:15.559Z,94193.30
2018-12-10T14:01:43.079Z,94195.97
2018-12-10T14:04:11.966Z,94196.28
2018-12-10T14:06:40.596Z,94196.65
2018-12-10T14:09:08.268Z,94195.52
2018-12-10T14:11:35.823Z,94190.28
2018-12-10T14:14:03.331Z,94189.52
2018-12-10T14:16:30.857Z,94203.53
2018-12-10T14:18:58.944Z,94204.67
2018-12-10T14:21:26.481Z,94191.39
2018-12-10T14:23:54.122Z,94211.47
2018-12-10T14:26:21.941Z,94211.81
2018-12-10T14:28:49.538Z,94208.92
2018-12-10T14:31:17.052Z,94213.77
2018-12-10T14:33:45.002Z,94216.95
2018-12-10T14:36:12.524Z,94212.67
2018-12-10T14:38:40.110Z,94213.34
2018-12-10T14:41:07.901Z,94209.65
2018-12-10T14:43:35.419Z,94210.91
2018-12-10T14:46:03.008Z,94209.81
2018-12-10T14:48:30.804Z,94207.27
2018-12-10T14:50:58.318Z,94208.87
2018-12-10T14:53:25.898Z,94209.30
2018-12-10T14:55:53.762Z,94213.33
2018-12-10T14:58:21.267Z,94213.11
2018-12-10T15:00:48.886Z,94219.98
2018-12-10T15:03:16.752Z,94225.19
2018-12-10T15:05:44.536Z,94228.72
2018-12-10T15:08:12.414Z,94229.62
2018-12-10T15:10:39.993Z,94240.53
2018-12-10T15:13:08.231Z,94240.60
2018-12-10T15:15:35.814Z,94244.80
2018-12-10T15:18:03.420Z,94247.67
2018-12-10T15:20:31.357Z,94250.61
2018-12-10T15:22:59.098Z,94264.03
2018-12-10T15:25:26.854Z,94261.32
2018-12-10T15:27:54.664Z,94263.79
2018-12-10T15:30:22.213Z,94262.55
2018-12-10T15:32:50.654Z,94263.63
2018-12-10T15:35:18.631Z,94258.84
2018-12-10T15:37:46.497Z,94265.80
2018-12-10T15:40:14.292Z,94267.73
2018-12-10T15:42:42.247Z,94268.14
2018-12-10T15:45:09.816Z,94273.97
2018-12-10T15:47:37.490Z,94273.78
2018-12-10T15:50:05.149Z,94271.46
2018-12-10T15:52:33.113Z,94281.55
2018-12-10T15:55:00.663Z,94281.06
2018-12-10T15:57:28.206Z,94280.12
2018-12-10T15:59:56.322Z,94287.71
2018-12-10T16:02:24.051Z,94287.75
2018-12-10T16:04:51.607Z,94287.75
2018-12-10T16:07:19.482Z,94289.97
2018-12-10T16:09:47.138Z,94286.11
2018-12-10T16:12:14.693Z,94280.52
2018-12-10T16:14:42.362Z,94284.41
2018-12-10T16:17:09.896Z,94292.23
2018-12-10T16:19:37.424Z,94289.13
2018-12-10T16:22:05.044Z,94283.22
2018-12-10T16:24:32.602Z,94300.91
2018-12-10T16:27:00.274Z,94301.53
2018-12-10T16:29:27.944Z,94300.00
2018-12-10T16:31:55.535Z,94302.71
2018-12-10T16:34:23.129Z,94299.23
2018-12-10T16:36:50.947Z,94303.89
2018-12-10T16:39:18.463Z,94304.06
2018-12-10T16:41:46.004Z,94304.97
2018-12-10T16:44:14.016Z,94310.22
2018-12-10T16:46:41.765Z,94311.41
2018-12-10T16:49:09.284Z,94315.55
2018-12-10T16:51:37.143Z,94314.58
2018-12-10T16:54:04.769Z,94323.79
2018-12-10T16:56:32.362Z,94312.00
2018-12-10T16:59:00.320Z,94315.34
2018-12-10T17:01:27.894Z,94319.97
2018-12-10T17:03:55.447Z,94323.27
2018-12-10T17:06:23.360Z,94322.16
2018-12-10T17:08:51.004Z,94321.15
2018-12-10T17:11:18.556Z,94324.34
2018-12-10T17:13:47.153Z,94321.53
2018-12-10T17:16:14.664Z,94321.84
2018-12-10T17:18:42.214Z,94325.17
2018-12-10T17:21:10.750Z,94325.32
2018-12-10T17:23:38.316Z,94324.83
2018-12-10T17:26:05.876Z,94336.28
2018-12-10T17:28:33.503Z,94331.52
2018-12-10T17:31:01.090Z,94338.50
2018-12-10T17:33:28.629Z,94302.07
2018-12-10T17:35:56.772Z,94334.44
2018-12-10T17:38:24.387Z,94333.67
2018-12-10T17:40:51.912Z,94335.51
2018-12-10T17:43:19.466Z,94335.75
2018-12-10T17:45:47.238Z,94340.63
2018-12-10T17:48:15.141Z,94346.88
2018-12-10T17:50:42.709Z,94344.09
2018-12-10T17:53:10.267Z,94335.41
2018-12-10T17:55:38.150Z,94354.42
2018-12-10T17:58:05.696Z,94358.31
2018-12-10T18:00:33.257Z,94364.67
2018-12-10T18:03:00.881Z,94361.89
2018-12-10T18:05:28.480Z,94369.97
2018-12-10T18:07:56.039Z,94364.55
2018-12-10T18:10:23.607Z,94354.96
2018-12-10T18:12:51.164Z,94365.70
2018-12-10T18:15:18.705Z,94360.51
2018-12-10T18:17:46.617Z,94364.94
2018-12-10T18:20:14.174Z,94370.27
2018-12-10T18:22:41.697Z,94367.30
2018-12-10T18:25:09.606Z,94366.31
2018-12-10T18:27:37.130Z,94365.38
2018-12-10T18:30:05.622Z,94370.38
2018-12-10T18:32:33.519Z,94376.88
2018-12-10T18:35:01.092Z,94372.90
2018-12-10T18:37:29.305Z,94376.79
2018-12-10T18:39:56.858Z,94376.47
2018-12-10T18:42:24.480Z,94376.22
2018-12-10T18:44:52.431Z,94371.23
2018-12-10T18:47:19.989Z,94371.34
2018-12-10T18:49:47.603Z,94377.27
2018-12-10T18:52:15.579Z,94374.81
2018-12-10T18:54:43.141Z,94381.81
2018-12-10T18:57:10.704Z,94387.05
2018-12-10T18:59:38.761Z,94387.23
2018-12-10T19:02:06.282Z,94391.56
2018-12-10T19:04:33.808Z,94401.64
2018-12-10T19:07:01.592Z,94400.95
2018-12-10T19:09:29.134Z,94405.34
2018-12-10T19:11:56.682Z,94399.23
2018-12-10T19:14:24.514Z,94403.25
2018-12-10T19:16:52.039Z,94397.30
2018-12-10T19:19:19.558Z,94402.30
2018-12-10T19:21:47.249Z,94403.39
2018-12-10T19:24:14.871Z,94415.08
2018-12-10T19:26:42.401Z,94409.48
2018-12-10T19:29:10.239Z,94415.34
2018-12-10T19:31:37.759Z,94408.05
2018-12-10T19:34:05.307Z,94414.41
2018-12-10T19:36:33.448Z,94409.34
2018-12-10T19:39:01.035Z,94415.69
2018-12-10T19:41:28.656Z,94406.97
2018-12-10T19:43:56.536Z,94420.34
2018-12-10T19:46:24.126Z,94419.75
2018-12-10T19:48:51.732Z,94421.73
2018-12-10T19:51:19.336Z,94419.02
2018-12-10T19:53:46.888Z,94409.01
2018-12-10T19:56:14.420Z,94413.17
2018-12-10T19:58:42.331Z,94412.41
2018-12-10T20:01:09.911Z,94408.52
2018-12-10T20:03:38.240Z,94410.81
2018-12-10T20:06:16.346Z,94415.97
2018-12-10T20:08:43.892Z,94412.61
2018-12-10T20:11:11.488Z,94403.37
2018-12-10T20:13:39.324Z,94408.45
2018-12-10T20:16:06.883Z,94395.33
2018-12-10T20:18:34.870Z,94402.27
2018-12-10T20:21:02.389Z,94399.06
2018-12-10T20:23:29.973Z,94403.03
2018-12-10T20:25:58.461Z,94397.88
2018-12-10T20:28:26.101Z,94395.66
2018-12-10T20:30:53.675Z,94395.16
2018-12-10T20:33:21.282Z,94398.03
2018-12-10T20:35:48.915Z,94396.81
2018-12-10T20:38:16.435Z,94399.03
2018-12-10T20:40:44.337Z,94406.37
2018-12-10T20:43:11.855Z,94409.42
2018-12-10T20:45:39.395Z,94421.52
2018-12-10T20:48:06.949Z,94410.78
2018-12-10T20:50:34.506Z,94421.33
2018-12-10T20:53:02.033Z,94411.83
2018-12-10T20:55:29.911Z,94420.72
2018-12-10T20:57:57.579Z,94415.82
2018-12-10T21:00:25.129Z,94418.75
2018-12-10T21:02:52.912Z,94410.80
2018-12-10T21:05:20.435Z,94423.22
2018-12-10T21:07:47.944Z,94430.23
2018-12-10T21:10:15.878Z,94427.83
2018-12-10T21:12:43.395Z,94434.27
2018-12-10T21:15:10.920Z,94434.59
2018-12-10T21:17:38.671Z,94436.96
2018-12-10T21:20:07.318Z,94434.41
2018-12-10T21:22:34.914Z,94431.19
2018-12-10T21:25:30.513Z,94432.47
2018-12-10T21:27:58.133Z,94437.95
2018-12-10T21:30:25.644Z,94431.89
2018-12-10T21:32:53.198Z,94430.02
2018-12-10T21:35:20.728Z,94430.42
2018-12-10T21:37:48.249Z,94435.76
2018-12-10T21:40:16.013Z,94438.17
2018-12-10T21:42:43.978Z,94438.69
2018-12-10T21:45:11.492Z,94440.47
2018-12-10T21:47:38.998Z,94441.57
2018-12-10T21:50:06.566Z,94435.22
2018-12-10T21:52:34.074Z,94439.56
2018-12-10T21:55:01.585Z,94445.95
2018-12-10T21:57:29.165Z,94437.99
2018-12-10T21:59:56.718Z,94444.27
2018-12-10T22:02:24.716Z,94443.33
2018-12-10T22:04:52.540Z,94445.19
2018-12-10T22:07:20.525Z,94449.23
2018-12-10T22:09:48.029Z,94433.09
2018-12-10T22:12:15.904Z,94453.84
2018-12-10T22:14:43.442Z,94452.27
2018-12-10T22:17:10.940Z,94448.08
2018-12-10T22:19:38.450Z,94450.92
2018-12-10T22:22:06.291Z,94449.57
2018-12-10T22:24:33.790Z,94447.23
2018-12-10T22:27:01.336Z,94446.57
2018-12-10T22:29:29.176Z,94454.43
2018-12-10T22:31:56.693Z,94456.00
2018-12-10T22:34:24.198Z,94455.30
2018-12-10T22:36:52.080Z,94458.92
2018-12-10T22:39:19.574Z,94448.95
2018-12-10T22:41:47.138Z,94458.66
2018-12-10T22:44:14.970Z,94458.66
2018-12-10T22:46:42.527Z,94459.87
2018-12-10T22:49:10.027Z,94460.41
2018-12-10T22:51:37.953Z,94459.58
2018-12-10T22:54:05.458Z,94458.59
2018-12-10T22:56:32.972Z,94456.80
2018-12-10T22:59:02.205Z,94458.99
2018-12-10T23:01:29.846Z,94459.17
2018-12-10T23:03:57.358Z,94460.70
2018-12-10T23:06:25.251Z,94453.77
2018-12-10T23:08:53.336Z,94457.75
2018-12-10T23:11:20.919Z,94464.83
2018-12-10T23:13:48.429Z,94466.70
2018-12-10T23:16:16.226Z,94467.55
2018-12-10T23:18:43.714Z,94463.34
2018-12-10T23:21:11.244Z,94472.95
2018-12-10T23:23:39.110Z,94466.87
2018-12-10T23:26:06.676Z,94472.10
2018-12-10T23:28:34.209Z,94474.69
2018-12-10T23:31:02.195Z,94462.64
2018-12-10T23:33:29.722Z,94468.34
2018-12-10T23:35:57.244Z,94471.80
2018-12-10T23:38:24.786Z,94471.16
2018-12-10T23:40:52.306Z,94473.34
2018-12-10T23:43:24.988Z,94480.50
2018-12-10T23:45:53.319Z,94475.57
2018-12-10T23:50:55.444Z,94469.77
2018-12-10T23:53:22.957Z,94472.91
2018-12-10T23:55:50.459Z,94476.89
2018-12-10T23:58:19.272Z,94476.83
